Time;durP1;ratioP1;P1;durP2;ratioP2;P2;SDS_P1;SDS_P2;PMS_P1;PMS_P2;Temp;Humidity;BMP_temperature;BMP_pressure;BME280_temperature;BME280_humidity;BME280_pressure;Samples;Min_cycle;Max_cycle;Signal;HPM_P1;HPM_P2
2022/09/01 00:02:31;;;;;;;19.63;16.63;;;22.90;96.70;;;;;;5115801;28;20527;-64
2022/09/01 00:04:59;;;;;;;20.20;16.07;;;22.80;96.60;;;;;;5119784;27;20207;-64
2022/09/01 00:07:33;;;;;;;18.33;16.37;;;22.80;96.70;;;;;;5101298;28;20704;-64
2022/09/01 00:10:03;;;;;;;18.13;16.23;;;22.80;96.70;;;;;;5113991;27;20279;-64
2022/09/01 00:12:30;;;;;;;19.07;16.60;;;22.80;96.60;;;;;;5116970;27;20197;-65
2022/09/01 00:14:58;;;;;;;16.70;15.00;;;22.80;96.60;;;;;;5118888;27;20269;-64
2022/09/01 00:17:25;;;;;;;23.77;17.07;;;22.80;96.60;;;;;;5119041;27;20207;-64
2022/09/01 00:19:52;;;;;;;18.40;16.50;;;22.80;96.60;;;;;;5103839;28;20228;-64
2022/09/01 00:22:19;;;;;;;18.17;16.37;;;22.80;96.70;;;;;;5112519;28;20200;-64
2022/09/01 00:24:46;;;;;;;18.63;16.47;;;22.80;96.40;;;;;;5114927;28;21027;-64
2022/09/01 00:27:13;;;;;;;22.13;18.20;;;22.70;96.40;;;;;;5119882;28;20227;-64
2022/09/01 00:29:41;;;;;;;23.73;16.90;;;22.70;96.30;;;;;;5118160;28;20203;-64
2022/09/01 00:32:11;;;;;;;19.57;17.47;;;22.70;96.30;;;;;;5110549;28;20590;-64
2022/09/01 00:34:38;;;;;;;20.30;18.00;;;22.70;96.40;;;;;;5123085;28;20285;-64
2022/09/01 00:37:06;;;;;;;21.77;16.87;;;22.70;96.40;;;;;;5111288;28;20588;-64
2022/09/01 00:39:33;;;;;;;18.37;16.47;;;22.70;96.40;;;;;;5115031;28;20201;-64
2022/09/01 00:42:01;;;;;;;18.73;16.30;;;22.70;96.20;;;;;;5094794;28;20614;-64
2022/09/01 00:44:28;;;;;;;23.93;16.17;;;22.60;96.20;;;;;;5109236;27;20208;-64
2022/09/01 00:46:58;;;;;;;19.93;17.20;;;22.60;96.20;;;;;;5113612;27;20558;-64
2022/09/01 00:49:25;;;;;;;19.07;16.43;;;22.60;96.10;;;;;;5108869;27;20276;-64
2022/09/01 00:51:59;;;;;;;19.43;17.00;;;22.60;96.10;;;;;;5106378;28;20532;-64
2022/09/01 00:54:32;;;;;;;20.33;17.50;;;22.60;96.10;;;;;;5109194;27;20199;-64
2022/09/01 00:57:01;;;;;;;21.77;16.23;;;22.60;96.00;;;;;;5109394;27;20211;-64
2022/09/01 00:59:28;;;;;;;19.50;16.57;;;22.60;96.20;;;;;;5111150;27;20215;-64
2022/09/01 01:01:57;;;;;;;22.77;17.73;;;22.50;96.20;;;;;;5099243;28;20235;-64
2022/09/01 01:04:24;;;;;;;23.87;18.70;;;22.50;96.30;;;;;;5114101;27;20193;-64
2022/09/01 01:07:01;;;;;;;26.40;18.93;;;22.50;96.30;;;;;;5090417;27;20703;-64
2022/09/01 01:09:31;;;;;;;20.50;18.37;;;22.50;96.40;;;;;;5107886;27;20268;-64
2022/09/01 01:12:01;;;;;;;27.33;19.03;;;22.50;96.40;;;;;;5105289;27;20204;-64
2022/09/01 01:14:31;;;;;;;29.67;18.80;;;22.50;96.60;;;;;;5103732;27;20206;-64
2022/09/01 01:16:59;;;;;;;25.60;18.87;;;22.50;96.70;;;;;;5099291;27;20268;-64
2022/09/01 01:23:02;;;;;;;23.83;18.77;;;22.50;96.80;;;;;;5119685;27;20262;-64
2022/09/01 01:25:34;;;;;;;28.13;19.20;;;22.50;96.70;;;;;;5100989;27;20204;-64
2022/09/01 01:28:17;;;;;;;26.07;17.63;;;22.40;96.60;;;;;;5118116;27;20200;-64
2022/09/01 01:30:52;;;;;;;24.37;19.47;;;22.40;96.50;;;;;;5105280;28;20254;-64
2022/09/01 01:33:27;;;;;;;23.47;18.97;;;22.40;96.60;;;;;;5104659;27;20218;-64
2022/09/01 01:35:56;;;;;;;24.80;19.13;;;22.40;96.70;;;;;;5104485;27;20228;-64
2022/09/01 01:38:26;;;;;;;27.13;20.20;;;22.40;96.80;;;;;;5101711;27;20499;-64
2022/09/01 01:40:55;;;;;;;27.67;19.37;;;22.40;96.80;;;;;;5109927;27;20217;-64
2022/09/01 01:43:25;;;;;;;30.30;18.37;;;22.30;96.80;;;;;;5087701;28;20258;-64
2022/09/01 01:45:55;;;;;;;21.70;18.37;;;22.30;96.70;;;;;;5095667;27;20236;-64
2022/09/01 01:48:28;;;;;;;22.00;18.77;;;22.30;96.70;;;;;;5102503;27;20206;-64
2022/09/01 01:50:59;;;;;;;26.43;19.50;;;22.30;96.60;;;;;;5096842;27;20288;-64
2022/09/01 01:53:27;;;;;;;27.53;19.00;;;22.20;96.70;;;;;;5104624;28;20280;-64
2022/09/01 01:55:57;;;;;;;29.73;20.77;;;22.20;96.80;;;;;;5100362;27;20208;-64
2022/09/01 01:58:31;;;;;;;30.20;20.20;;;22.20;96.90;;;;;;5104831;27;20663;-64
2022/09/01 02:00:59;;;;;;;27.03;19.73;;;22.20;97.00;;;;;;5084352;27;20625;-64
2022/09/01 02:03:37;;;;;;;22.23;19.30;;;22.20;97.00;;;;;;5103284;27;20572;-64
2022/09/01 02:06:08;;;;;;;29.50;20.50;;;22.20;97.10;;;;;;5097816;28;20224;-64
2022/09/01 02:08:37;;;;;;;26.73;19.27;;;22.20;97.10;;;;;;5090679;27;20197;-64
2022/09/01 02:11:06;;;;;;;23.97;19.80;;;22.10;97.10;;;;;;5098161;28;20205;-64
2022/09/01 02:13:34;;;;;;;26.33;21.77;;;22.10;97.20;;;;;;5115105;27;20218;-64
2022/09/01 02:16:06;;;;;;;29.10;21.53;;;22.10;97.30;;;;;;5096901;28;20300;-64
2022/09/01 02:18:37;;;;;;;28.13;21.13;;;22.10;97.40;;;;;;5105409;27;20304;-64
2022/09/01 02:21:08;;;;;;;28.60;21.57;;;22.10;97.40;;;;;;5119404;27;20207;-64
2022/09/01 02:23:41;;;;;;;25.77;20.67;;;22.10;97.40;;;;;;5106609;27;20568;-64
2022/09/01 02:26:10;;;;;;;24.83;20.83;;;22.10;97.30;;;;;;5117689;27;20214;-64
2022/09/01 02:28:48;;;;;;;25.00;22.33;;;22.10;97.20;;;;;;5088988;27;20196;-64
2022/09/01 02:31:26;;;;;;;30.63;23.13;;;22.10;97.00;;;;;;5095211;27;20220;-64
2022/09/01 02:33:56;;;;;;;29.90;24.03;;;22.10;96.90;;;;;;5104804;27;20208;-64
2022/09/01 02:36:24;;;;;;;29.67;23.97;;;22.10;97.00;;;;;;5085347;27;20200;-64
2022/09/01 02:38:53;;;;;;;29.10;23.43;;;22.00;96.90;;;;;;5117482;27;20207;-64
2022/09/01 02:41:23;;;;;;;26.67;22.07;;;22.00;97.00;;;;;;5104557;27;20560;-64
2022/09/01 02:43:52;;;;;;;30.80;22.97;;;22.00;97.10;;;;;;5103064;27;20248;-64
2022/09/01 02:46:22;;;;;;;31.67;24.30;;;22.10;97.30;;;;;;5105377;27;20273;-64
2022/09/01 02:48:51;;;;;;;28.27;23.20;;;22.10;97.40;;;;;;5082697;27;20202;-64
2022/09/01 02:51:24;;;;;;;32.27;24.70;;;22.10;97.50;;;;;;5097836;28;20208;-64
2022/09/01 02:53:51;;;;;;;30.37;23.73;;;22.10;97.50;;;;;;5095212;28;20212;-64
2022/09/01 02:56:23;;;;;;;31.80;23.90;;;22.10;97.60;;;;;;5100173;27;20211;-64
2022/09/01 02:58:52;;;;;;;37.37;26.43;;;22.10;97.60;;;;;;5104219;27;20273;-64
2022/09/01 03:01:24;;;;;;;35.27;26.43;;;22.10;97.60;;;;;;5096734;27;20318;-64
2022/09/01 03:03:54;;;;;;;32.30;25.00;;;22.10;97.60;;;;;;5118554;27;20660;-64
2022/09/01 03:06:22;;;;;;;33.10;25.23;;;22.10;97.60;;;;;;5102697;28;20570;-64
2022/09/01 03:08:55;;;;;;;33.03;24.53;;;22.10;97.60;;;;;;5101958;27;20241;-64
2022/09/01 03:11:23;;;;;;;36.70;24.30;;;22.10;97.60;;;;;;5102995;27;20204;-64
2022/09/01 03:13:50;;;;;;;38.23;25.23;;;22.10;97.60;;;;;;5117191;27;20235;-64
2022/09/01 03:16:17;;;;;;;35.00;25.60;;;22.20;97.60;;;;;;5087837;28;20298;-64
2022/09/01 03:18:45;;;;;;;36.87;25.47;;;22.20;97.90;;;;;;5095602;28;20246;-64
2022/09/01 03:21:15;;;;;;;33.83;23.77;;;22.10;97.60;;;;;;5106934;28;20234;-64
2022/09/01 03:23:45;;;;;;;31.20;23.67;;;22.20;97.60;;;;;;5103433;27;20212;-64
2022/09/01 03:26:17;;;;;;;35.90;24.70;;;22.10;97.40;;;;;;5106240;28;20255;-64
2022/09/01 03:28:45;;;;;;;41.27;26.30;;;22.10;97.30;;;;;;5121495;27;20257;-64
2022/09/01 03:31:13;;;;;;;35.13;24.43;;;22.10;97.40;;;;;;5103488;27;20238;-64
2022/09/01 03:33:41;;;;;;;30.60;24.37;;;22.20;97.40;;;;;;5100943;28;20204;-64
2022/09/01 03:36:20;;;;;;;32.30;24.40;;;22.20;97.40;;;;;;5100870;28;20219;-64
2022/09/01 03:38:49;;;;;;;30.00;23.07;;;22.20;97.40;;;;;;5096897;28;20215;-64
2022/09/01 03:41:21;;;;;;;32.93;24.03;;;22.20;97.40;;;;;;5100304;28;20217;-64
2022/09/01 03:43:50;;;;;;;37.17;22.90;;;22.20;97.40;;;;;;5115251;27;20310;-64
2022/09/01 03:46:20;;;;;;;37.90;24.10;;;22.20;97.50;;;;;;5103864;27;20282;-64
2022/09/01 03:48:50;;;;;;;31.10;23.33;;;22.10;97.40;;;;;;5089002;27;20196;-64
2022/09/01 03:51:21;;;;;;;32.47;23.43;;;22.20;97.40;;;;;;5101796;27;20203;-64
2022/09/01 03:53:53;;;;;;;33.37;23.27;;;22.10;97.30;;;;;;5121003;27;20192;-64
2022/09/01 03:56:26;;;;;;;32.43;22.03;;;22.20;97.30;;;;;;5103279;28;20265;-64
2022/09/01 03:58:56;;;;;;;28.47;21.93;;;22.20;97.30;;;;;;5100358;27;20633;-64
2022/09/01 04:01:26;;;;;;;27.70;21.73;;;22.10;97.30;;;;;;5094980;28;20331;-64
2022/09/01 04:03:54;;;;;;;24.83;20.33;;;22.10;97.40;;;;;;5102325;27;20228;-64
2022/09/01 04:06:29;;;;;;;24.23;19.50;;;22.10;97.30;;;;;;5103541;27;20768;-64
2022/09/01 04:09:01;;;;;;;22.40;19.00;;;22.10;96.90;;;;;;5108921;28;20583;-64
2022/09/01 04:11:32;;;;;;;21.07;18.37;;;22.00;96.50;;;;;;5118675;27;20196;-64
2022/09/01 04:14:00;;;;;;;18.43;15.63;;;22.00;96.30;;;;;;5100358;28;20226;-64
2022/09/01 04:19:24;;;;;;;19.33;16.70;;;21.90;96.30;;;;;;5100166;28;20239;-64
2022/09/01 04:21:56;;;;;;;19.00;16.47;;;21.80;96.40;;;;;;5100063;28;20204;-64
2022/09/01 04:24:29;;;;;;;24.07;18.00;;;21.80;96.50;;;;;;5100378;28;20223;-64
2022/09/01 04:27:00;;;;;;;20.00;18.00;;;21.80;97.00;;;;;;5094100;28;20224;-64
2022/09/01 04:29:30;;;;;;;22.57;18.37;;;21.80;96.90;;;;;;5102809;28;20266;-64
2022/09/01 04:32:05;;;;;;;21.40;17.80;;;21.80;97.00;;;;;;5102060;28;20291;-64
2022/09/01 04:34:37;;;;;;;22.80;17.70;;;21.80;97.10;;;;;;5096041;28;20296;-64
2022/09/01 04:37:19;;;;;;;22.10;16.77;;;21.70;97.10;;;;;;5105194;28;20264;-64
2022/09/01 04:39:55;;;;;;;23.30;17.33;;;21.70;97.20;;;;;;5102594;28;21569;-64
2022/09/01 04:42:27;;;;;;;23.73;18.03;;;21.70;97.50;;;;;;5098118;28;20193;-64
2022/09/01 04:44:57;;;;;;;22.10;17.83;;;21.70;97.20;;;;;;5095975;28;20211;-64
2022/09/01 04:47:33;;;;;;;23.77;16.17;;;21.70;97.10;;;;;;5121913;28;20859;-64
2022/09/01 04:50:12;;;;;;;17.70;15.90;;;21.70;97.00;;;;;;5099007;28;20213;-64
2022/09/01 04:52:44;;;;;;;19.33;16.83;;;21.70;97.00;;;;;;5118580;28;20627;-64
2022/09/01 04:55:28;;;;;;;20.43;16.43;;;21.70;96.90;;;;;;5102552;28;20207;-64
2022/09/01 04:58:00;;;;;;;21.30;16.03;;;21.70;97.00;;;;;;5097873;28;20203;-64
2022/09/01 05:00:31;;;;;;;20.00;16.60;;;21.70;96.90;;;;;;5084706;28;20634;-64
2022/09/01 05:03:04;;;;;;;23.43;17.47;;;21.70;96.90;;;;;;5104962;28;20208;-64
2022/09/01 05:06:01;;;;;;;22.20;16.90;;;21.80;97.00;;;;;;5079787;28;20214;-64
2022/09/01 05:08:30;;;;;;;28.60;18.43;;;21.70;97.00;;;;;;5093237;28;20230;-64
2022/09/01 05:11:06;;;;;;;21.00;17.93;;;21.70;97.00;;;;;;5102404;28;20297;-64
2022/09/01 05:13:44;;;;;;;20.40;18.20;;;21.80;97.00;;;;;;5087393;28;20234;-64
2022/09/01 05:16:18;;;;;;;24.17;18.47;;;21.80;96.90;;;;;;5085094;28;20218;-64
2022/09/01 05:18:53;;;;;;;23.13;18.13;;;21.80;97.00;;;;;;5101856;28;20240;-64
2022/09/01 05:21:23;;;;;;;22.37;17.77;;;21.90;97.10;;;;;;5100527;28;20277;-64
2022/09/01 05:23:51;;;;;;;21.83;18.67;;;21.90;97.20;;;;;;5098954;28;20208;-64
2022/09/01 05:26:23;;;;;;;23.77;18.33;;;21.90;97.20;;;;;;5100631;28;20256;-64
2022/09/01 05:28:53;;;;;;;22.03;18.90;;;21.90;97.20;;;;;;5079848;28;20223;-64
2022/09/01 05:31:23;;;;;;;22.70;18.43;;;22.00;97.20;;;;;;5092524;27;20259;-64
2022/09/01 05:33:52;;;;;;;20.47;18.27;;;22.00;97.20;;;;;;5084055;28;20204;-64
2022/09/01 05:36:22;;;;;;;18.87;16.90;;;22.10;97.10;;;;;;5107603;27;20393;-64
2022/09/01 05:38:51;;;;;;;22.57;17.17;;;22.10;96.90;;;;;;5102103;27;20203;-64
2022/09/01 05:41:19;;;;;;;20.77;15.77;;;22.10;96.40;;;;;;5102302;28;20618;-64
2022/09/01 05:43:50;;;;;;;19.10;17.07;;;22.10;96.00;;;;;;5106597;27;20312;-64
2022/09/01 05:46:26;;;;;;;20.00;17.33;;;22.10;95.90;;;;;;5103242;27;20739;-64
2022/09/01 05:48:56;;;;;;;19.40;17.40;;;22.10;95.90;;;;;;5117764;27;20269;-64
2022/09/01 05:51:26;;;;;;;24.03;17.67;;;22.10;95.90;;;;;;5099081;27;20190;-64
2022/09/01 05:54:11;;;;;;;24.67;18.87;;;22.10;95.90;;;;;;5107275;27;20290;-64
2022/09/01 05:56:39;;;;;;;21.03;17.67;;;22.10;96.00;;;;;;5116787;27;20295;-64
2022/09/01 05:59:13;;;;;;;21.20;16.53;;;22.10;96.00;;;;;;5103074;28;20241;-64
2022/09/01 06:01:51;;;;;;;23.37;17.93;;;22.20;96.00;;;;;;5106933;27;20197;-64
2022/09/01 06:04:24;;;;;;;17.73;15.93;;;22.30;96.10;;;;;;5117653;27;20205;-64
2022/09/01 06:06:53;;;;;;;17.50;15.23;;;22.30;96.00;;;;;;5103017;27;20540;-64
2022/09/01 06:09:46;;;;;;;15.63;14.13;;;22.40;95.70;;;;;;5122270;27;20536;-64
2022/09/01 06:12:17;;;;;;;17.67;14.13;;;22.50;95.30;;;;;;5093189;28;20224;-64
2022/09/01 06:14:47;;;;;;;15.93;13.43;;;22.50;95.10;;;;;;5115673;27;20521;-64
2022/09/01 06:17:20;;;;;;;15.93;13.40;;;22.60;95.00;;;;;;5105118;27;20192;-64
2022/09/01 06:19:51;;;;;;;15.40;13.73;;;22.60;94.80;;;;;;5097866;28;20741;-64
2022/09/01 06:22:19;;;;;;;12.27;11.00;;;22.60;95.00;;;;;;5098116;28;20687;-64
2022/09/01 06:24:47;;;;;;;14.23;12.00;;;22.60;94.60;;;;;;5101335;28;20204;-64
2022/09/01 06:27:21;;;;;;;19.50;11.83;;;22.60;94.50;;;;;;5099950;28;20265;-64
2022/09/01 06:29:52;;;;;;;14.37;10.53;;;22.60;94.40;;;;;;5098531;28;20270;-64
2022/09/01 06:32:20;;;;;;;11.60;10.37;;;22.70;94.50;;;;;;5095439;28;20215;-64
2022/09/01 06:34:49;;;;;;;9.50;8.70;;;22.70;94.40;;;;;;5100866;28;20232;-64
2022/09/01 06:37:21;;;;;;;10.00;8.70;;;22.80;94.20;;;;;;5090742;28;20666;-64
2022/09/01 06:39:51;;;;;;;10.57;8.63;;;22.80;93.70;;;;;;5087464;28;20295;-64
2022/09/01 06:42:19;;;;;;;9.63;7.77;;;22.80;93.30;;;;;;5101712;28;20293;-64
2022/09/01 06:44:52;;;;;;;8.63;7.77;;;22.80;93.10;;;;;;5102836;28;20207;-64
2022/09/01 06:47:19;;;;;;;9.97;8.97;;;22.90;92.70;;;;;;5075868;28;20221;-64
2022/09/01 06:49:46;;;;;;;9.73;8.73;;;22.90;92.70;;;;;;5101165;28;20215;-64
2022/09/01 06:52:19;;;;;;;8.13;6.77;;;22.90;92.80;;;;;;5116941;27;20196;-64
2022/09/01 06:54:47;;;;;;;9.90;7.03;;;23.00;92.70;;;;;;5098707;28;20558;-64
2022/09/01 06:57:16;;;;;;;7.70;6.87;;;22.90;92.30;;;;;;5098349;28;20258;-64
2022/09/01 07:00:19;;;;;;;11.77;7.57;;;22.90;92.10;;;;;;5116086;27;20745;-64
2022/09/01 07:02:54;;;;;;;8.13;7.33;;;23.00;92.20;;;;;;5099631;28;20295;-64
2022/09/01 07:05:46;;;;;;;8.03;7.07;;;23.00;92.20;;;;;;5096457;28;20243;-64
2022/09/01 07:08:48;;;;;;;6.57;5.97;;;23.00;91.90;;;;;;5102341;28;20270;-64
2022/09/01 07:11:37;;;;;;;8.57;5.80;;;23.10;91.90;;;;;;5103867;28;20201;-64
2022/09/01 07:14:25;;;;;;;9.00;5.87;;;23.10;91.50;;;;;;5100992;28;20208;-64
2022/09/01 07:16:54;;;;;;;6.50;5.77;;;23.10;91.30;;;;;;5105051;28;20519;-64
2022/09/01 07:19:42;;;;;;;9.33;6.13;;;23.10;91.30;;;;;;5087353;28;20246;-64
2022/09/01 07:22:17;;;;;;;5.67;5.17;;;23.10;91.30;;;;;;5096553;28;20269;-64
2022/09/01 07:25:04;;;;;;;5.57;5.07;;;23.10;91.00;;;;;;5094447;28;20205;-64
2022/09/01 07:27:49;;;;;;;7.70;4.87;;;23.10;90.90;;;;;;5104553;28;20239;-64
2022/09/01 07:30:19;;;;;;;6.50;5.43;;;23.10;90.70;;;;;;5102990;28;20203;-65
2022/09/01 07:32:52;;;;;;;6.83;5.37;;;23.10;90.70;;;;;;5115582;27;20206;-64
2022/09/01 07:35:23;;;;;;;18.83;5.93;;;23.10;91.00;;;;;;5097602;28;20227;-64
2022/09/01 07:37:51;;;;;;;7.90;5.30;;;23.20;91.20;;;;;;5096554;28;20237;-64
2022/09/01 07:40:41;;;;;;;293.23;262.03;;;23.30;91.00;;;;;;5099460;28;20660;-64
2022/09/01 07:43:50;;;;;;;807.80;721.63;;;23.30;90.40;;;;;;5042924;28;20209;-64
2022/09/01 07:46:35;;;;;;;950.67;712.43;;;23.50;90.30;;;;;;5093214;28;20207;-64
2022/09/01 07:49:06;;;;;;;28.00;24.97;;;23.60;90.20;;;;;;5096449;28;20236;-64
2022/09/01 07:51:53;;;;;;;686.87;412.93;;;23.80;89.30;;;;;;5112261;27;20217;-64
2022/09/01 07:54:23;;;;;;;658.70;391.07;;;23.90;87.40;;;;;;5103154;28;20302;-64
2022/09/01 07:56:54;;;;;;;9.80;7.03;;;24.00;85.90;;;;;;5106334;28;20265;-64
2022/09/01 07:59:21;;;;;;;4.27;3.77;;;24.00;86.80;;;;;;5112825;27;20614;-64
2022/09/01 08:01:59;;;;;;;27.67;18.63;;;24.10;85.90;;;;;;5096769;28;20208;-64
2022/09/01 08:04:27;;;;;;;7.30;3.30;;;24.00;84.70;;;;;;5094234;28;20292;-64
2022/09/01 08:06:54;;;;;;;7.77;3.27;;;24.00;84.00;;;;;;5083535;28;20253;-64
2022/09/01 08:09:22;;;;;;;3.30;3.00;;;24.00;85.30;;;;;;5102759;28;20735;-64
2022/09/01 08:12:07;;;;;;;5.57;2.90;;;24.10;86.10;;;;;;5115848;27;20222;-64
2022/09/01 08:14:52;;;;;;;6.07;2.87;;;24.20;84.80;;;;;;5081267;28;20209;-64
2022/09/01 08:17:40;;;;;;;6.80;3.27;;;24.30;82.90;;;;;;5109183;27;20543;-64
2022/09/01 08:20:25;;;;;;;3.93;2.73;;;24.50;83.50;;;;;;5098121;28;20233;-64
2022/09/01 08:23:25;;;;;;;4.73;2.70;;;24.60;82.40;;;;;;5083746;28;20225;-64
2022/09/01 08:25:53;;;;;;;4.37;2.67;;;24.70;81.30;;;;;;5094538;28;20206;-64
2022/09/01 08:28:20;;;;;;;2.37;2.03;;;24.90;81.30;;;;;;5092002;28;20560;-64
2022/09/01 08:30:55;;;;;;;3.33;2.47;;;25.10;81.00;;;;;;5095605;28;20256;-64
2022/09/01 08:33:25;;;;;;;4.70;2.50;;;25.20;79.70;;;;;;5085363;28;20585;-64
2022/09/01 08:35:54;;;;;;;4.90;2.27;;;25.30;80.20;;;;;;5101909;28;20193;-64
2022/09/01 08:38:21;;;;;;;4.80;2.50;;;25.40;79.40;;;;;;5098778;28;20204;-64
2022/09/01 08:40:53;;;;;;;6.40;2.80;;;25.50;79.90;;;;;;5088363;28;20205;-64
2022/09/01 08:43:49;;;;;;;2.30;2.10;;;25.70;78.10;;;;;;5094479;28;20202;-64
2022/09/01 08:46:27;;;;;;;6.33;1.70;;;25.90;78.20;;;;;;5091809;28;20216;-64
2022/09/01 08:48:58;;;;;;;16.87;2.73;;;26.30;78.50;;;;;;5078236;28;20262;-64
2022/09/01 08:52:37;;;;;;;3.90;1.83;;;26.50;76.20;;;;;;5071581;28;20289;-64
2022/09/01 08:55:34;;;;;;;2.47;2.00;;;26.90;74.30;;;;;;5094385;28;20922;-64
2022/09/01 08:58:03;;;;;;;5.10;2.00;;;27.10;72.10;;;;;;5100545;28;20279;-64
2022/09/01 09:01:07;;;;;;;2.17;1.60;;;27.30;72.10;;;;;;5060757;28;20244;-64
2022/09/01 09:03:46;;;;;;;2.13;1.73;;;27.40;70.30;;;;;;5096862;28;20600;-64
2022/09/01 09:06:13;;;;;;;3.63;2.03;;;27.50;72.10;;;;;;5097648;28;20204;-64
2022/09/01 09:09:04;;;;;;;7.80;1.87;;;27.50;72.50;;;;;;5098652;28;20217;-64
2022/09/01 09:11:59;;;;;;;7.43;1.70;;;27.60;72.30;;;;;;5094704;28;20192;-64
2022/09/01 09:14:32;;;;;;;2.20;1.80;;;27.70;69.50;;;;;;5109506;27;20627;-64
2022/09/01 09:17:00;;;;;;;3.57;2.10;;;27.60;69.30;;;;;;5101571;28;20642;-64
2022/09/01 09:19:34;;;;;;;6.47;2.10;;;27.50;69.20;;;;;;5108896;27;20228;-64
2022/09/01 09:22:09;;;;;;;6.27;1.53;;;27.30;68.10;;;;;;5090842;27;20201;-64
2022/09/01 09:24:54;;;;;;;2.57;1.40;;;27.10;70.30;;;;;;5106211;27;20200;-64
2022/09/01 09:27:25;;;;;;;3.30;1.90;;;26.90;70.10;;;;;;5121705;27;20195;-64
2022/09/01 09:29:55;;;;;;;4.33;1.40;;;26.70;70.60;;;;;;5109053;27;20311;-64
2022/09/01 09:32:41;;;;;;;4.73;1.47;;;26.70;72.30;;;;;;5114294;27;20188;-64
2022/09/01 09:35:40;;;;;;;5.87;1.37;;;26.70;72.70;;;;;;5115972;27;20201;-63
2022/09/01 09:38:17;;;;;;;4.33;1.57;;;26.90;68.90;;;;;;5099072;27;20202;-64
2022/09/01 09:41:02;;;;;;;7.63;2.40;;;26.90;69.70;;;;;;5124088;27;20229;-64
2022/09/01 09:43:57;;;;;;;4.57;1.47;;;27.00;71.10;;;;;;5089346;28;20201;-65
2022/09/01 09:46:31;;;;;;;2.33;1.70;;;27.20;71.10;;;;;;5102260;27;20209;-63
2022/09/01 09:49:22;;;;;;;5.00;1.83;;;27.50;67.60;;;;;;5118492;27;20228;-63
2022/09/01 09:52:17;;;;;;;5.87;1.80;;;27.70;67.90;;;;;;5085960;28;20711;-64
2022/09/01 09:55:05;;;;;;;11.17;2.27;;;28.00;66.70;;;;;;5114884;27;20199;-64
2022/09/01 09:57:38;;;;;;;6.37;2.23;;;28.00;68.00;;;;;;5124650;27;20206;-64
2022/09/01 10:00:32;;;;;;;11.67;2.43;;;28.10;65.40;;;;;;5117375;27;20622;-64
2022/09/01 10:03:06;;;;;;;10.20;2.67;;;28.20;66.10;;;;;;5109313;27;20289;-64
2022/09/01 10:05:41;;;;;;;4.63;1.93;;;28.40;65.70;;;;;;5106043;27;20273;-64
2022/09/01 10:08:38;;;;;;;9.20;2.07;;;28.50;64.20;;;;;;5122507;27;20304;-64
2022/09/01 10:11:06;;;;;;;5.30;2.03;;;28.50;64.70;;;;;;5100325;27;20208;-64
2022/09/01 10:13:35;;;;;;;4.80;1.80;;;28.50;65.50;;;;;;5117253;27;20208;-64
2022/09/01 10:16:13;;;;;;;4.33;1.90;;;28.50;65.50;;;;;;5097587;28;20212;-65
2022/09/01 10:18:48;;;;;;;4.70;1.67;;;28.50;64.70;;;;;;5087085;27;20251;-64
2022/09/01 10:21:39;;;;;;;3.47;1.87;;;28.50;66.40;;;;;;5122298;27;20210;-64
2022/09/01 10:24:31;;;;;;;4.17;1.70;;;28.80;65.50;;;;;;5109489;27;20657;-64
2022/09/01 10:27:12;;;;;;;5.57;1.73;;;28.70;62.70;;;;;;5112703;27;20586;-64
2022/09/01 10:29:56;;;;;;;9.30;1.63;;;28.50;62.20;;;;;;5103109;27;20231;-64
2022/09/01 10:32:43;;;;;;;6.07;2.23;;;28.20;63.20;;;;;;5111966;27;20192;-65
2022/09/01 10:35:28;;;;;;;6.40;1.67;;;28.00;63.10;;;;;;5120653;27;20200;-65
2022/09/01 10:37:58;;;;;;;8.63;2.10;;;27.90;63.10;;;;;;5121897;27;20672;-65
2022/09/01 10:40:29;;;;;;;7.47;1.73;;;27.80;63.00;;;;;;5096992;28;20196;-65
2022/09/01 10:43:17;;;;;;;4.73;1.50;;;27.70;62.90;;;;;;5119309;27;20268;-65
2022/09/01 10:45:44;;;;;;;8.80;2.30;;;27.60;62.10;;;;;;5104882;27;20211;-65
2022/09/01 10:48:21;;;;;;;3.33;2.07;;;27.50;64.60;;;;;;5117135;27;20219;-66
2022/09/01 10:51:14;;;;;;;6.67;1.80;;;27.50;64.00;;;;;;5121735;27;20272;-65
2022/09/01 10:53:56;;;;;;;6.80;2.10;;;27.40;63.40;;;;;;5116770;27;20237;-65
2022/09/01 10:56:42;;;;;;;4.53;2.00;;;27.30;63.40;;;;;;5117795;27;20200;-66
2022/09/01 10:59:27;;;;;;;3.23;1.57;;;27.20;63.70;;;;;;5116067;27;20290;-66
2022/09/01 11:02:13;;;;;;;5.63;1.77;;;27.20;65.40;;;;;;5098645;27;20199;-66
2022/09/01 11:05:00;;;;;;;6.77;2.43;;;27.10;66.00;;;;;;5113290;27;20215;-66
2022/09/01 11:07:37;;;;;;;4.20;1.97;;;27.20;65.70;;;;;;5086290;27;20605;-66
2022/09/01 11:10:38;;;;;;;6.40;2.50;;;27.40;64.50;;;;;;5120137;27;20201;-65
2022/09/01 11:13:29;;;;;;;5.00;2.53;;;27.70;65.60;;;;;;5119052;27;20206;-65
2022/09/01 11:16:16;;;;;;;4.77;1.80;;;28.10;65.80;;;;;;5122911;27;20207;-65
2022/09/01 11:19:37;;;;;;;6.93;2.07;;;28.40;61.60;;;;;;5120444;27;20242;-65
2022/09/01 11:22:37;;;;;;;1.93;1.83;;;28.70;61.00;;;;;;5067042;27;20645;-65
2022/09/01 11:25:06;;;;;;;5.60;2.10;;;28.80;61.40;;;;;;5109426;27;20635;-65
2022/09/01 11:27:48;;;;;;;1.60;1.50;;;28.90;59.20;;;;;;5117146;27;20231;-66
2022/09/01 11:30:17;;;;;;;6.10;2.37;;;28.90;58.50;;;;;;5117638;27;20652;-66
2022/09/01 11:32:49;;;;;;;4.53;1.70;;;28.80;60.70;;;;;;5117157;27;20211;-65
2022/09/01 11:35:23;;;;;;;6.43;1.93;;;28.70;60.50;;;;;;5118903;27;20207;-65
2022/09/01 11:37:54;;;;;;;2.47;1.50;;;28.60;59.50;;;;;;5116228;27;20204;-65
2022/09/01 11:40:26;;;;;;;5.83;1.93;;;28.40;59.10;;;;;;5114637;27;20661;-65
2022/09/01 11:43:06;;;;;;;6.40;1.80;;;28.20;59.50;;;;;;5119315;27;20209;-65
2022/09/01 11:46:19;;;;;;;4.73;1.63;;;28.00;61.10;;;;;;5118074;27;20203;-66
2022/09/01 11:48:48;;;;;;;2.10;1.87;;;27.80;61.90;;;;;;5092682;27;20227;-65
2022/09/01 11:51:20;;;;;;;4.83;1.97;;;27.60;63.00;;;;;;5118837;27;20217;-65
2022/09/01 11:53:49;;;;;;;4.60;2.27;;;27.50;62.50;;;;;;5118715;27;20210;-65
2022/09/01 11:56:23;;;;;;;12.43;2.40;;;27.50;63.50;;;;;;5119544;27;20201;-65
2022/09/01 11:58:50;;;;;;;5.30;2.07;;;27.70;64.60;;;;;;5125165;27;20244;-65
2022/09/01 12:01:34;;;;;;;2.37;1.60;;;28.00;64.20;;;;;;5105909;27;20199;-65
2022/09/01 12:04:32;;;;;;;4.30;1.67;;;28.10;63.80;;;;;;5111582;27;20214;-65
2022/09/01 12:07:05;;;;;;;2.63;1.70;;;28.10;62.40;;;;;;5114014;27;20213;-65
2022/09/01 12:09:44;;;;;;;6.20;1.97;;;28.00;61.80;;;;;;5111124;28;20219;-65
2022/09/01 12:12:37;;;;;;;5.97;1.87;;;27.90;63.60;;;;;;5105366;28;20214;-65
2022/09/01 12:15:21;;;;;;;6.50;2.10;;;27.70;63.70;;;;;;5113596;27;20261;-65
2022/09/01 12:17:48;;;;;;;2.50;1.70;;;27.60;63.60;;;;;;5118283;27;20227;-65
2022/09/01 12:20:26;;;;;;;4.10;1.97;;;27.50;64.30;;;;;;5119525;27;20200;-65
2022/09/01 12:22:56;;;;;;;3.07;1.50;;;27.40;64.20;;;;;;5090194;28;20198;-65
2022/09/01 12:25:30;;;;;;;5.77;1.90;;;27.30;64.20;;;;;;5121024;27;20202;-65
2022/09/01 12:28:00;;;;;;;5.67;2.27;;;27.20;63.70;;;;;;5116348;28;20199;-65
2022/09/01 12:30:28;;;;;;;5.80;1.73;;;27.20;64.80;;;;;;5107432;28;20227;-65
2022/09/01 12:32:58;;;;;;;6.23;2.43;;;27.20;64.60;;;;;;5113311;28;20195;-65
2022/09/01 12:35:46;;;;;;;2.80;1.80;;;27.10;64.10;;;;;;5103139;28;20494;-65
2022/09/01 12:38:19;;;;;;;2.37;1.60;;;27.00;64.70;;;;;;5121593;28;20207;-65
2022/09/01 12:40:52;;;;;;;2.90;2.10;;;27.00;66.30;;;;;;5116922;27;20547;-65
2022/09/01 12:43:30;;;;;;;3.63;2.37;;;27.00;66.60;;;;;;5125900;27;20518;-64
2022/09/01 12:46:00;;;;;;;6.13;2.13;;;27.10;69.10;;;;;;5120077;27;20193;-65
2022/09/01 12:48:35;;;;;;;6.37;1.83;;;27.20;68.90;;;;;;5119156;27;20203;-64
2022/09/01 12:51:19;;;;;;;4.03;2.10;;;27.50;67.50;;;;;;5123700;27;20191;-66
2022/09/01 12:54:00;;;;;;;6.70;2.23;;;27.90;66.20;;;;;;5107962;27;20239;-65
2022/09/01 12:56:37;;;;;;;2.97;1.77;;;28.10;65.60;;;;;;5114895;27;21003;-65
2022/09/01 12:59:11;;;;;;;2.50;2.03;;;28.30;65.10;;;;;;5119060;27;20303;-65
2022/09/01 13:01:43;;;;;;;2.83;2.10;;;28.60;65.70;;;;;;5105991;27;20669;-65
2022/09/01 13:04:14;;;;;;;2.63;1.80;;;28.80;65.70;;;;;;5123117;27;20291;-65
2022/09/01 13:06:41;;;;;;;3.87;1.77;;;29.00;64.70;;;;;;5121841;27;20352;-65
2022/09/01 13:09:09;;;;;;;4.33;1.97;;;29.10;62.00;;;;;;5124506;27;20216;-65
2022/09/01 13:11:36;;;;;;;3.07;1.90;;;29.10;63.30;;;;;;5096923;27;20235;-65
2022/09/01 13:14:24;;;;;;;2.90;1.63;;;29.10;62.40;;;;;;5114361;27;20200;-65
2022/09/01 13:16:51;;;;;;;2.20;2.00;;;29.10;62.00;;;;;;5123840;27;20207;-65
2022/09/01 13:19:18;;;;;;;2.67;2.13;;;29.10;62.30;;;;;;5121297;27;20227;-65
2022/09/01 13:21:54;;;;;;;3.77;1.87;;;29.10;62.60;;;;;;5117697;27;20854;-65
2022/09/01 13:24:22;;;;;;;3.40;1.53;;;29.00;63.00;;;;;;5106551;27;20200;-66